Airfield :
LOGIN :

Register | Disclaimer

   EN    FR    IT 

 










Legend :    VFR   Marginal VFR   IFR   Intensive IFR   Very Intensive IFR
Visi :
Ceiling :
>= 8 km
>= 3000ft
5 to 8 km
1000 to 3000 ft
1500m to 5 km
500 to 1000 ft
800 to 1500m
200 to 500 ft
< 800m
< 200 ft
Symbols :   Thunderstorms  Fog  Heavy snow  Heavy precipitations  Wind > 20 kt
SIGMETs :     Misc.  Thunderstorms  Icing  Turbulence  Mountain Waves  Volcanic Ashes






- Airport Elevation : 160 ft
- IATA code : LRT


LFRH - Lorient Lann Bihoue

CURRENT METAR :
  • 252000Z AUTO 01003KT CAVOK 11/08 Q1019 NOSIG

EXPIRED METARs :
  • 251930Z AUTO 01004KT CAVOK 12/09 Q1019 NOSIG
  • 251900Z AUTO 01005KT CAVOK 12/09 Q1019 NOSIG
  • 251830Z AUTO 01005KT CAVOK 13/10 Q1019 NOSIG
  • 251800Z AUTO 01005KT CAVOK 14/10 Q1019 NOSIG
  • 251730Z AUTO 02008KT CAVOK 16/09 Q1019 NOSIG

TAF AMD TAF LFRH
Valid from the 25 at 18:00 until the 26 at 18:00 UTC


251736Z 2518/2618 04010KT CAVOK
PROB30
TEMPO 2600/2604 3000 BR
BECMG 2604/2606 28015G25KT BKN030
TEMPO 2606/2610 RA BKN015 OVC025
BECMG 2610/2612 4000 RA BKN010 OVC020
BECMG 2613/2615 34015G25KT 9999 NSW BKN045



MET'MAP, your aeronautical weather chart ! - Copyright ORBIFLY December 2007 - Disclaimer

ORBIFLY MET'MAP TEAM :

Programming & Development : Alexandra Zaïnal
Original concept : Baudouin d'Aumeries
Technical & hardware support : Manuel Goepfert
Assistance : Marc-Olivier Méhu




SOURCES & CREDITS :

   NOAA